sensor_id;sensor_type;location;lat;lon;timestamp;pressure;altitude;pressure_sealevel;temperature;humidity
72116;BME280;59991;52.140;5.428;2023-04-30T00:00:15;102426.38;;;8.23;83.01
72116;BME280;59991;52.140;5.428;2023-04-30T00:00:47;102420.94;;;8.23;82.38
72116;BME280;59991;52.140;5.428;2023-04-30T00:01:19;102429.09;;;8.23;82.83
72116;BME280;59991;52.140;5.428;2023-04-30T00:01:50;102425.59;;;8.23;82.81
72116;BME280;59991;52.140;5.428;2023-04-30T00:02:22;102427.19;;;8.24;82.43
72116;BME280;59991;52.140;5.428;2023-04-30T00:02:54;102424.47;;;8.24;82.85
72116;BME280;59991;52.140;5.428;2023-04-30T00:03:25;102419.03;;;8.24;82.65
72116;BME280;59991;52.140;5.428;2023-04-30T00:03:57;102424.47;;;8.24;82.75
72116;BME280;59991;52.140;5.428;2023-04-30T00:04:28;102429.09;;;8.23;82.67
72116;BME280;59991;52.140;5.428;2023-04-30T00:05:00;102422.06;;;8.22;82.42
72116;BME280;59991;52.140;5.428;2023-04-30T00:05:31;102423.66;;;8.23;82.48
72116;BME280;59991;52.140;5.428;2023-04-30T00:06:03;102420.16;;;8.23;82.25
72116;BME280;59991;52.140;5.428;2023-04-30T00:06:34;102422.06;;;8.22;82.23
72116;BME280;59991;52.140;5.428;2023-04-30T00:07:06;102424.78;;;8.22;82.49
72116;BME280;59991;52.140;5.428;2023-04-30T00:07:38;102420.47;;;8.21;82.51
72116;BME280;59991;52.140;5.428;2023-04-30T00:08:12;102420.47;;;8.21;82.36
72116;BME280;59991;52.140;5.428;2023-04-30T00:08:44;102415.34;;;8.20;82.31
72116;BME280;59991;52.140;5.428;2023-04-30T00:09:15;102416.16;;;8.20;82.63
72116;BME280;59991;52.140;5.428;2023-04-30T00:09:47;102414.56;;;8.19;82.17
72116;BME280;59991;52.140;5.428;2023-04-30T00:10:20;102415.66;;;8.18;82.81
72116;BME280;59991;52.140;5.428;2023-04-30T00:10:51;102416.47;;;8.19;82.45
72116;BME280;59991;52.140;5.428;2023-04-30T00:11:23;102415.66;;;8.18;82.11
72116;BME280;59991;52.140;5.428;2023-04-30T00:11:56;102419.81;;;8.16;82.73
72116;BME280;59991;52.140;5.428;2023-04-30T00:12:27;102417.91;;;8.16;82.95
72116;BME280;59991;52.140;5.428;2023-04-30T00:12:59;102420.16;;;8.14;83.18
72116;BME280;59991;52.140;5.428;2023-04-30T00:13:30;102412.31;;;8.13;83.58
72116;BME280;59991;52.140;5.428;2023-04-30T00:14:01;102419.66;;;8.12;83.56
72116;BME280;59991;52.140;5.428;2023-04-30T00:14:33;102416.94;;;8.12;83.23
72116;BME280;59991;52.140;5.428;2023-04-30T00:15:05;102415.34;;;8.11;83.84
72116;BME280;59991;52.140;5.428;2023-04-30T00:15:37;102423.81;;;8.10;83.38
72116;BME280;59991;52.140;5.428;2023-04-30T00:16:08;102421.41;;;8.08;83.15
72116;BME280;59991;52.140;5.428;2023-04-30T00:16:41;102418.72;;;8.08;83.70
72116;BME280;59991;52.140;5.428;2023-04-30T00:17:12;102424.50;;;8.07;84.07
72116;BME280;59991;52.140;5.428;2023-04-30T00:17:44;102419.38;;;8.05;83.88
72116;BME280;59991;52.140;5.428;2023-04-30T00:18:16;102420.81;;;8.03;83.90
72116;BME280;59991;52.140;5.428;2023-04-30T00:18:47;102418.91;;;8.03;84.09
72116;BME280;59991;52.140;5.428;2023-04-30T00:19:19;102422.72;;;8.02;84.09
72116;BME280;59991;52.140;5.428;2023-04-30T00:19:50;102423.53;;;8.03;84.20
72116;BME280;59991;52.140;5.428;2023-04-30T00:20:23;102423.84;;;8.01;84.55
72116;BME280;59991;52.140;5.428;2023-04-30T00:20:54;102427.69;;;8.00;83.92
72116;BME280;59991;52.140;5.428;2023-04-30T00:21:26;102420.66;;;7.99;84.11
72116;BME280;59991;52.140;5.428;2023-04-30T00:21:57;102424.47;;;7.98;83.97
72116;BME280;59991;52.140;5.428;2023-04-30T00:22:31;102420.16;;;7.97;84.20
72116;BME280;59991;52.140;5.428;2023-04-30T00:23:03;102421.28;;;7.96;84.43
72116;BME280;59991;52.140;5.428;2023-04-30T00:23:35;102423.19;;;7.95;84.31
72116;BME280;59991;52.140;5.428;2023-04-30T00:24:06;102421.28;;;7.96;84.20
72116;BME280;59991;52.140;5.428;2023-04-30T00:24:38;102418.09;;;7.94;84.08
72116;BME280;59991;52.140;5.428;2023-04-30T00:25:09;102421.59;;;7.94;84.14
72116;BME280;59991;52.140;5.428;2023-04-30T00:25:41;102420.00;;;7.93;84.13
72116;BME280;59991;52.140;5.428;2023-04-30T00:26:13;102418.09;;;7.94;83.87
72116;BME280;59991;52.140;5.428;2023-04-30T00:26:44;102420.00;;;7.93;84.32
72116;BME280;59991;52.140;5.428;2023-04-30T00:27:16;102418.41;;;7.92;84.72
72116;BME280;59991;52.140;5.428;2023-04-30T00:27:47;102419.53;;;7.91;84.45
72116;BME280;59991;52.140;5.428;2023-04-30T00:28:19;102428.47;;;7.92;83.96
72116;BME280;59991;52.140;5.428;2023-04-30T00:28:50;102423.34;;;7.90;84.61
72116;BME280;59991;52.140;5.428;2023-04-30T00:29:22;102421.75;;;7.89;84.44
72116;BME280;59991;52.140;5.428;2023-04-30T00:29:53;102419.03;;;7.89;84.20
72116;BME280;59991;52.140;5.428;2023-04-30T00:30:25;102411.25;;;7.88;84.04
72116;BME280;59991;52.140;5.428;2023-04-30T00:30:57;102417.47;;;7.88;84.33
72116;BME280;59991;52.140;5.428;2023-04-30T00:31:28;102415.06;;;7.87;84.47
72116;BME280;59991;52.140;5.428;2023-04-30T00:32:00;102414.28;;;7.86;83.49
72116;BME280;59991;52.140;5.428;2023-04-30T00:32:32;102422.41;;;7.86;83.21
72116;BME280;59991;52.140;5.428;2023-04-30T00:33:03;102414.28;;;7.86;83.44
72116;BME280;59991;52.140;5.428;2023-04-30T00:33:35;102417.00;;;7.86;83.63
72116;BME280;59991;52.140;5.428;2023-04-30T00:34:07;102415.41;;;7.85;82.89
72116;BME280;59991;52.140;5.428;2023-04-30T00:34:38;102411.88;;;7.85;83.64
72116;BME280;59991;52.140;5.428;2023-04-30T00:35:10;102412.19;;;7.83;83.38
72116;BME280;59991;52.140;5.428;2023-04-30T00:35:42;102410.28;;;7.84;83.65
72116;BME280;59991;52.140;5.428;2023-04-30T00:36:13;102421.13;;;7.84;83.26
72116;BME280;59991;52.140;5.428;2023-04-30T00:36:44;102416.81;;;7.83;83.26
72116;BME280;59991;52.140;5.428;2023-04-30T00:37:16;102416.03;;;7.82;83.47
72116;BME280;59991;52.140;5.428;2023-04-30T00:37:47;102417.94;;;7.82;83.42
72116;BME280;59991;52.140;5.428;2023-04-30T00:38:19;102417.13;;;7.81;83.67
72116;BME280;59991;52.140;5.428;2023-04-30T00:38:50;102422.88;;;7.80;84.04
72116;BME280;59991;52.140;5.428;2023-04-30T00:39:22;102415.84;;;7.79;84.21
72116;BME280;59991;52.140;5.428;2023-04-30T00:39:53;102417.78;;;7.78;84.04
72116;BME280;59991;52.140;5.428;2023-04-30T00:40:25;102420.81;;;7.77;84.10
72116;BME280;59991;52.140;5.428;2023-04-30T00:40:57;102414.56;;;7.76;84.14
72116;BME280;59991;52.140;5.428;2023-04-30T00:41:29;102412.97;;;7.75;84.51
72116;BME280;59991;52.140;5.428;2023-04-30T00:42:01;102417.63;;;7.75;84.33
72116;BME280;59991;52.140;5.428;2023-04-30T00:42:33;102424.97;;;7.74;85.15
72116;BME280;59991;52.140;5.428;2023-04-30T00:43:04;102421.44;;;7.74;84.76
72116;BME280;59991;52.140;5.428;2023-04-30T00:43:36;102428.00;;;7.73;85.25
72116;BME280;59991;52.140;5.428;2023-04-30T00:44:07;102426.06;;;7.73;84.83
72116;BME280;59991;52.140;5.428;2023-04-30T00:44:39;102429.09;;;7.72;84.68
72116;BME280;59991;52.140;5.428;2023-04-30T00:45:10;102429.41;;;7.70;84.72
72116;BME280;59991;52.140;5.428;2023-04-30T00:45:42;102428.16;;;7.68;84.57
72116;BME280;59991;52.140;5.428;2023-04-30T00:46:13;102431.19;;;7.66;84.06
72116;BME280;59991;52.140;5.428;2023-04-30T00:46:45;102419.53;;;7.66;84.34
72116;BME280;59991;52.140;5.428;2023-04-30T00:47:16;102428.81;;;7.65;84.09
72116;BME280;59991;52.140;5.428;2023-04-30T00:47:48;102429.91;;;7.63;84.24
72116;BME280;59991;52.140;5.428;2023-04-30T00:48:20;102428.81;;;7.65;84.08
72116;BME280;59991;52.140;5.428;2023-04-30T00:48:52;102432.31;;;7.65;83.90
72116;BME280;59991;52.140;5.428;2023-04-30T00:49:23;102429.44;;;7.61;84.26
72116;BME280;59991;52.140;5.428;2023-04-30T00:49:55;102429.13;;;7.63;84.35
72116;BME280;59991;52.140;5.428;2023-04-30T00:50:28;102426.72;;;7.61;84.47
72116;BME280;59991;52.140;5.428;2023-04-30T00:51:01;102426.22;;;7.59;84.50
72116;BME280;59991;52.140;5.428;2023-04-30T00:51:34;102429.25;;;7.58;84.57
72116;BME280;59991;52.140;5.428;2023-04-30T00:52:06;102426.88;;;7.56;84.43
72116;BME280;59991;52.140;5.428;2023-04-30T00:52:38;102434.22;;;7.56;84.15
72116;BME280;59991;52.140;5.428;2023-04-30T00:53:11;102436.13;;;7.55;84.06
72116;BME280;59991;52.140;5.428;2023-04-30T00:53:43;102434.53;;;7.54;83.84
72116;BME280;59991;52.140;5.428;2023-04-30T00:54:14;102439.47;;;7.52;83.70
72116;BME280;59991;52.140;5.428;2023-04-30T00:54:47;102436.28;;;7.50;83.99
72116;BME280;59991;52.140;5.428;2023-04-30T00:55:18;102435.50;;;7.50;83.72
72116;BME280;59991;52.140;5.428;2023-04-30T00:55:50;102428.78;;;7.47;84.05
72116;BME280;59991;52.140;5.428;2023-04-30T00:56:22;102437.25;;;7.46;83.89
72116;BME280;59991;52.140;5.428;2023-04-30T00:56:53;102434.84;;;7.44;83.39
72116;BME280;59991;52.140;5.428;2023-04-30T00:57:25;102438.34;;;7.45;84.22
72116;BME280;59991;52.140;5.428;2023-04-30T00:57:57;102432.44;;;7.43;83.82
72116;BME280;59991;52.140;5.428;2023-04-30T00:58:29;102432.44;;;7.43;84.18
72116;BME280;59991;52.140;5.428;2023-04-30T00:59:01;102439.28;;;7.40;84.23
72116;BME280;59991;52.140;5.428;2023-04-30T00:59:32;102438.81;;;7.38;84.05
72116;BME280;59991;52.140;5.428;2023-04-30T01:00:04;102436.09;;;7.38;84.22
72116;BME280;59991;52.140;5.428;2023-04-30T01:00:36;102434.81;;;7.36;84.17
72116;BME280;59991;52.140;5.428;2023-04-30T01:01:08;102440.25;;;7.36;84.52
72116;BME280;59991;52.140;5.428;2023-04-30T01:01:40;102430.50;;;7.35;84.59
72116;BME280;59991;52.140;5.428;2023-04-30T01:02:12;102437.34;;;7.32;84.73
72116;BME280;59991;52.140;5.428;2023-04-30T01:02:43;102439.25;;;7.32;84.72
72116;BME280;59991;52.140;5.428;2023-04-30T01:03:15;102434.97;;;7.31;84.28
72116;BME280;59991;52.140;5.428;2023-04-30T01:03:47;102437.69;;;7.31;84.59
72116;BME280;59991;52.140;5.428;2023-04-30T01:04:19;102430.34;;;7.31;84.29
72116;BME280;59991;52.140;5.428;2023-04-30T01:04:50;102436.25;;;7.33;84.34
72116;BME280;59991;52.140;5.428;2023-04-30T01:05:22;102438.94;;;7.33;84.53
72116;BME280;59991;52.140;5.428;2023-04-30T01:05:53;102436.25;;;7.33;84.37
72116;BME280;59991;52.140;5.428;2023-04-30T01:06:25;102437.03;;;7.34;84.74
72116;BME280;59991;52.140;5.428;2023-04-30T01:06:57;102441.34;;;7.35;84.66
72116;BME280;59991;52.140;5.428;2023-04-30T01:07:33;102439.44;;;7.35;84.35
72116;BME280;59991;52.140;5.428;2023-04-30T01:08:05;102429.38;;;7.36;84.59
72116;BME280;59991;52.140;5.428;2023-04-30T01:08:37;102435.59;;;7.36;84.20
72116;BME280;59991;52.140;5.428;2023-04-30T01:09:09;102441.03;;;7.36;84.67
72116;BME280;59991;52.140;5.428;2023-04-30T01:09:40;102434.50;;;7.37;83.98
72116;BME280;59991;52.140;5.428;2023-04-30T01:10:12;102432.59;;;7.38;84.19
72116;BME280;59991;52.140;5.428;2023-04-30T01:10:50;102443.44;;;7.38;84.38
72116;BME280;59991;52.140;5.428;2023-04-30T01:11:41;102438.00;;;7.38;84.34
72116;BME280;59991;52.140;5.428;2023-04-30T01:12:22;102434.50;;;7.37;84.49
72116;BME280;59991;52.140;5.428;2023-04-30T01:13:12;102438.00;;;7.38;84.08
72116;BME280;59991;52.140;5.428;2023-04-30T01:14:03;102436.72;;;7.35;84.48
72116;BME280;59991;52.140;5.428;2023-04-30T01:14:48;102437.84;;;7.34;84.90
72116;BME280;59991;52.140;5.428;2023-04-30T01:15:31;102434.63;;;7.32;84.97
72116;BME280;59991;52.140;5.428;2023-04-30T01:16:15;102445.03;;;7.30;85.13
72116;BME280;59991;52.140;5.428;2023-04-30T01:17:17;102447.25;;;7.28;84.98
72116;BME280;59991;52.140;5.428;2023-04-30T01:18:48;102453.63;;;7.23;85.14
72116;BME280;59991;52.140;5.428;2023-04-30T01:19:35;102438.78;;;7.21;85.54
72116;BME280;59991;52.140;5.428;2023-04-30T01:20:09;102441.00;;;7.19;84.88
72116;BME280;59991;52.140;5.428;2023-04-30T01:20:59;102437.78;;;7.17;85.23
72116;BME280;59991;52.140;5.428;2023-04-30T01:21:32;102444.34;;;7.16;84.98
72116;BME280;59991;52.140;5.428;2023-04-30T01:22:13;102444.97;;;7.13;85.35
72116;BME280;59991;52.140;5.428;2023-04-30T01:23:56;102447.53;;;7.09;85.59
72116;BME280;59991;52.140;5.428;2023-04-30T01:24:46;102440.81;;;7.07;85.63
72116;BME280;59991;52.140;5.428;2023-04-30T01:25:44;102444.63;;;7.06;85.38
72116;BME280;59991;52.140;5.428;2023-04-30T01:28:14;102441.91;;;7.06;86.21
72116;BME280;59991;52.140;5.428;2023-04-30T01:28:49;102442.72;;;7.06;86.35
72116;BME280;59991;52.140;5.428;2023-04-30T01:29:23;102445.75;;;7.05;86.93
72116;BME280;59991;52.140;5.428;2023-04-30T01:29:55;102444.16;;;7.04;87.32
72116;BME280;59991;52.140;5.428;2023-04-30T01:30:28;102452.28;;;7.04;86.91
72116;BME280;59991;52.140;5.428;2023-04-30T01:31:00;102449.09;;;7.02;87.38
72116;BME280;59991;52.140;5.428;2023-04-30T01:31:31;102448.28;;;7.01;87.25
72116;BME280;59991;52.140;5.428;2023-04-30T01:32:03;102444.78;;;7.01;87.56
72116;BME280;59991;52.140;5.428;2023-04-30T01:32:34;102446.69;;;7.00;87.93
72116;BME280;59991;52.140;5.428;2023-04-30T01:33:06;102447.78;;;6.99;87.31
72116;BME280;59991;52.140;5.428;2023-04-30T01:33:37;102448.91;;;6.98;87.66
72116;BME280;59991;52.140;5.428;2023-04-30T01:34:09;102457.03;;;6.98;87.25
72116;BME280;59991;52.140;5.428;2023-04-30T01:34:41;102450.81;;;6.98;87.15
72116;BME280;59991;52.140;5.428;2023-04-30T01:35:12;102444.59;;;6.97;87.22
72116;BME280;59991;52.140;5.428;2023-04-30T01:36:52;102448.41;;;6.96;86.48
72116;BME280;59991;52.140;5.428;2023-04-30T01:39:25;102445.22;;;6.94;86.65
72116;BME280;59991;52.140;5.428;2023-04-30T01:40:56;102442.34;;;6.90;87.02
72116;BME280;59991;52.140;5.428;2023-04-30T01:42:20;102446.00;;;6.86;86.30
72116;BME280;59991;52.140;5.428;2023-04-30T01:43:11;102439.28;;;6.83;86.62
72116;BME280;59991;52.140;5.428;2023-04-30T01:44:12;102438.00;;;6.81;87.02
72116;BME280;59991;52.140;5.428;2023-04-30T01:46:30;102449.28;;;6.74;86.30
72116;BME280;59991;52.140;5.428;2023-04-30T01:47:08;102439.38;;;6.70;86.40
72116;BME280;59991;52.140;5.428;2023-04-30T01:47:50;102438.88;;;6.68;86.53
72116;BME280;59991;52.140;5.428;2023-04-30T01:48:43;102441.91;;;6.66;86.79
72116;BME280;59991;52.140;5.428;2023-04-30T01:49:56;102448.44;;;6.65;86.64
72116;BME280;59991;52.140;5.428;2023-04-30T01:50:56;102447.94;;;6.63;86.33
72116;BME280;59991;52.140;5.428;2023-04-30T01:51:38;102442.53;;;6.63;86.67
72116;BME280;59991;52.140;5.428;2023-04-30T01:52:27;102436.31;;;6.63;86.79
72116;BME280;59991;52.140;5.428;2023-04-30T01:53:05;102442.53;;;6.63;86.61
72116;BME280;59991;52.140;5.428;2023-04-30T01:53:40;102446.34;;;6.62;87.37
72116;BME280;59991;52.140;5.428;2023-04-30T01:54:26;102453.38;;;6.63;87.79
72116;BME280;59991;52.140;5.428;2023-04-30T01:55:07;102448.25;;;6.62;87.83
72116;BME280;59991;52.140;5.428;2023-04-30T01:55:50;102453.69;;;6.62;87.67
72116;BME280;59991;52.140;5.428;2023-04-30T01:56:36;102456.09;;;6.63;87.68
72116;BME280;59991;52.140;5.428;2023-04-30T01:57:25;102450.66;;;6.63;87.55
72116;BME280;59991;52.140;5.428;2023-04-30T01:58:06;102459.59;;;6.64;87.68
72116;BME280;59991;52.140;5.428;2023-04-30T01:58:39;102449.56;;;6.64;88.32
72116;BME280;59991;52.140;5.428;2023-04-30T01:59:13;102449.56;;;6.64;88.32
72116;BME280;59991;52.140;5.428;2023-04-30T01:59:46;102449.56;;;6.64;88.02
72116;BME280;59991;52.140;5.428;2023-04-30T02:00:17;102449.56;;;6.64;88.06
72116;BME280;59991;52.140;5.428;2023-04-30T02:00:49;102453.88;;;6.65;88.39
72116;BME280;59991;52.140;5.428;2023-04-30T02:01:29;102452.75;;;6.66;88.83
72116;BME280;59991;52.140;5.428;2023-04-30T02:02:02;102455.16;;;6.68;88.64
72116;BME280;59991;52.140;5.428;2023-04-30T02:02:34;102454.03;;;6.69;88.51
72116;BME280;59991;52.140;5.428;2023-04-30T02:03:06;102457.56;;;6.69;89.06
72116;BME280;59991;52.140;5.428;2023-04-30T02:03:37;102459.16;;;6.70;89.07
72116;BME280;59991;52.140;5.428;2023-04-30T02:04:09;102457.25;;;6.71;89.46
72116;BME280;59991;52.140;5.428;2023-04-30T02:04:41;102461.88;;;6.70;89.09
72116;BME280;59991;52.140;5.428;2023-04-30T02:05:12;102461.56;;;6.72;89.50
72116;BME280;59991;52.140;5.428;2023-04-30T02:05:44;102455.03;;;6.73;89.56
72116;BME280;59991;52.140;5.428;2023-04-30T02:06:15;102455.84;;;6.73;89.28
72116;BME280;59991;52.140;5.428;2023-04-30T02:06:47;102458.53;;;6.73;89.59
72116;BME280;59991;52.140;5.428;2023-04-30T02:07:31;102457.41;;;6.74;89.29
72116;BME280;59991;52.140;5.428;2023-04-30T02:08:05;102460.13;;;6.74;89.33
72116;BME280;59991;52.140;5.428;2023-04-30T02:08:37;102462.03;;;6.74;89.30
72116;BME280;59991;52.140;5.428;2023-04-30T02:09:08;102459.31;;;6.74;89.25
72116;BME280;59991;52.140;5.428;2023-04-30T02:09:40;102462.81;;;6.74;88.86
72116;BME280;59991;52.140;5.428;2023-04-30T02:10:12;102455.50;;;6.75;89.00
72116;BME280;59991;52.140;5.428;2023-04-30T02:10:43;102460.13;;;6.74;89.71
72116;BME280;59991;52.140;5.428;2023-04-30T02:11:15;102457.41;;;6.74;89.66
72116;BME280;59991;52.140;5.428;2023-04-30T02:11:46;102453.13;;;6.73;89.29
72116;BME280;59991;52.140;5.428;2023-04-30T02:12:18;102458.53;;;6.73;89.60
72116;BME280;59991;52.140;5.428;2023-04-30T02:12:52;102451.53;;;6.72;89.34
72116;BME280;59991;52.140;5.428;2023-04-30T02:13:24;102459.66;;;6.72;89.48
72116;BME280;59991;52.140;5.428;2023-04-30T02:13:55;102453.44;;;6.72;88.99
72116;BME280;59991;52.140;5.428;2023-04-30T02:14:27;102456.94;;;6.72;89.51
72116;BME280;59991;52.140;5.428;2023-04-30T02:14:58;102459.66;;;6.72;89.17
72116;BME280;59991;52.140;5.428;2023-04-30T02:15:30;102459.66;;;6.72;89.20
72116;BME280;59991;52.140;5.428;2023-04-30T02:16:01;102453.44;;;6.72;89.66
72116;BME280;59991;52.140;5.428;2023-04-30T02:16:34;102463.47;;;6.71;89.22
72116;BME280;59991;52.140;5.428;2023-04-30T02:17:05;102460.75;;;6.71;89.23
72116;BME280;59991;52.140;5.428;2023-04-30T02:17:37;102462.97;;;6.69;89.23
72116;BME280;59991;52.140;5.428;2023-04-30T02:18:08;102457.56;;;6.69;88.78
72116;BME280;59991;52.140;5.428;2023-04-30T02:18:40;102455.16;;;6.68;89.13
72116;BME280;59991;52.140;5.428;2023-04-30T02:19:12;102451.34;;;6.69;88.66
72116;BME280;59991;52.140;5.428;2023-04-30T02:19:43;102453.25;;;6.68;88.66
72116;BME280;59991;52.140;5.428;2023-04-30T02:20:14;102457.88;;;6.68;88.83
72116;BME280;59991;52.140;5.428;2023-04-30T02:20:46;102456.75;;;6.69;88.93
72116;BME280;59991;52.140;5.428;2023-04-30T02:21:17;102452.13;;;6.69;89.07
72116;BME280;59991;52.140;5.428;2023-04-30T02:21:48;102449.44;;;6.69;89.05
72116;BME280;59991;52.140;5.428;2023-04-30T02:22:20;102455.97;;;6.68;89.25
72116;BME280;59991;52.140;5.428;2023-04-30T02:22:51;102456.25;;;6.67;89.31
72116;BME280;59991;52.140;5.428;2023-04-30T02:23:23;102454.34;;;6.67;89.59
72116;BME280;59991;52.140;5.428;2023-04-30T02:23:54;102454.66;;;6.66;89.82
72116;BME280;59991;52.140;5.428;2023-04-30T02:24:26;102452.75;;;6.66;89.55
72116;BME280;59991;52.140;5.428;2023-04-30T02:24:57;102458.19;;;6.66;89.45
72116;BME280;59991;52.140;5.428;2023-04-30T02:25:29;102451.94;;;6.66;89.05
72116;BME280;59991;52.140;5.428;2023-04-30T02:26:01;102452.75;;;6.66;89.15
72116;BME280;59991;52.140;5.428;2023-04-30T02:26:33;102451.16;;;6.65;88.98
72116;BME280;59991;52.140;5.428;2023-04-30T02:27:05;102449.56;;;6.64;88.75
72116;BME280;59991;52.140;5.428;2023-04-30T02:27:37;102453.38;;;6.63;88.46
72116;BME280;59991;52.140;5.428;2023-04-30T02:28:08;102446.34;;;6.62;88.46
72116;BME280;59991;52.140;5.428;2023-04-30T02:28:40;102453.69;;;6.62;88.51
72116;BME280;59991;52.140;5.428;2023-04-30T02:29:12;102450.16;;;6.61;88.88
72116;BME280;59991;52.140;5.428;2023-04-30T02:29:44;102448.56;;;6.60;88.60
72116;BME280;59991;52.140;5.428;2023-04-30T02:30:15;102448.56;;;6.60;88.88
72116;BME280;59991;52.140;5.428;2023-04-30T02:30:47;102449.69;;;6.59;88.58
72116;BME280;59991;52.140;5.428;2023-04-30T02:31:19;102451.59;;;6.58;88.58
72116;BME280;59991;52.140;5.428;2023-04-30T02:31:50;102448.06;;;6.58;88.94
72116;BME280;59991;52.140;5.428;2023-04-30T02:32:25;102450.78;;;6.58;88.77
72116;BME280;59991;52.140;5.428;2023-04-30T02:32:56;102446.47;;;6.57;89.41
72116;BME280;59991;52.140;5.428;2023-04-30T02:33:28;102445.66;;;6.56;88.90
72116;BME280;59991;52.140;5.428;2023-04-30T02:33:59;102450.28;;;6.56;89.02
72116;BME280;59991;52.140;5.428;2023-04-30T02:34:31;102445.97;;;6.55;89.55
72116;BME280;59991;52.140;5.428;2023-04-30T02:35:02;102445.19;;;6.54;89.23
72116;BME280;59991;52.140;5.428;2023-04-30T02:35:34;102453.31;;;6.54;89.24
72116;BME280;59991;52.140;5.428;2023-04-30T02:36:05;102448.69;;;6.55;88.95
72116;BME280;59991;52.140;5.428;2023-04-30T02:36:37;102447.13;;;6.54;89.07
72116;BME280;59991;52.140;5.428;2023-04-30T02:37:09;102445.50;;;6.53;88.95
72116;BME280;59991;52.140;5.428;2023-04-30T02:37:40;102448.53;;;6.51;88.84
72116;BME280;59991;52.140;5.428;2023-04-30T02:38:12;102449.66;;;6.50;88.90
72116;BME280;59991;52.140;5.428;2023-04-30T02:38:43;102443.41;;;6.50;89.24
72116;BME280;59991;52.140;5.428;2023-04-30T02:39:14;102447.25;;;6.49;88.76
72116;BME280;59991;52.140;5.428;2023-04-30T02:39:46;102454.56;;;6.48;88.52
72116;BME280;59991;52.140;5.428;2023-04-30T02:40:17;102449.47;;;6.47;89.25
72116;BME280;59991;52.140;5.428;2023-04-30T02:40:49;102454.88;;;6.47;89.01
72116;BME280;59991;52.140;5.428;2023-04-30T02:41:20;102444.03;;;6.47;89.16
72116;BME280;59991;52.140;5.428;2023-04-30T02:41:52;102454.06;;;6.46;89.19
72116;BME280;59991;52.140;5.428;2023-04-30T02:42:23;102440.53;;;6.46;89.28
72116;BME280;59991;52.140;5.428;2023-04-30T02:42:55;102451.38;;;6.46;89.74
72116;BME280;59991;52.140;5.428;2023-04-30T02:43:27;102452.16;;;6.47;89.63
72116;BME280;59991;52.140;5.428;2023-04-30T02:43:58;102446.75;;;6.47;89.66
72116;BME280;59991;52.140;5.428;2023-04-30T02:44:30;102451.88;;;6.48;90.10
72116;BME280;59991;52.140;5.428;2023-04-30T02:45:01;102444.03;;;6.47;89.61
72116;BME280;59991;52.140;5.428;2023-04-30T02:45:33;102453.78;;;6.48;89.73
72116;BME280;59991;52.140;5.428;2023-04-30T02:46:04;102447.25;;;6.49;89.65
72116;BME280;59991;52.140;5.428;2023-04-30T02:46:36;102444.53;;;6.49;89.35
72116;BME280;59991;52.140;5.428;2023-04-30T02:47:08;102444.53;;;6.49;89.29
72116;BME280;59991;52.140;5.428;2023-04-30T02:47:39;102439.09;;;6.49;89.27
72116;BME280;59991;52.140;5.428;2023-04-30T02:48:12;102443.41;;;6.50;88.85
72116;BME280;59991;52.140;5.428;2023-04-30T02:48:43;102441.03;;;6.48;89.06
72116;BME280;59991;52.140;5.428;2023-04-30T02:49:15;102439.41;;;6.47;89.54
72116;BME280;59991;52.140;5.428;2023-04-30T02:49:47;102439.41;;;6.47;89.53
72116;BME280;59991;52.140;5.428;2023-04-30T02:50:19;102448.66;;;6.46;89.23
72116;BME280;59991;52.140;5.428;2023-04-30T02:50:50;102437.81;;;6.46;89.87
72116;BME280;59991;52.140;5.428;2023-04-30T02:51:21;102444.34;;;6.45;89.87
72116;BME280;59991;52.140;5.428;2023-04-30T02:51:53;102442.75;;;6.44;89.44
72116;BME280;59991;52.140;5.428;2023-04-30T02:52:25;102442.25;;;6.42;89.54
72116;BME280;59991;52.140;5.428;2023-04-30T02:52:56;102444.16;;;6.42;89.46
72116;BME280;59991;52.140;5.428;2023-04-30T02:53:28;102452.59;;;6.40;89.49
72116;BME280;59991;52.140;5.428;2023-04-30T02:53:59;102449.09;;;6.40;89.67
72116;BME280;59991;52.140;5.428;2023-04-30T02:54:31;102449.38;;;6.38;89.70
72116;BME280;59991;52.140;5.428;2023-04-30T02:55:02;102449.69;;;6.37;89.11
72116;BME280;59991;52.140;5.428;2023-04-30T02:55:34;102448.09;;;6.36;89.14
72116;BME280;59991;52.140;5.428;2023-04-30T02:56:06;102447.63;;;6.34;89.40
72116;BME280;59991;52.140;5.428;2023-04-30T02:56:38;102446.03;;;6.33;88.59
72116;BME280;59991;52.140;5.428;2023-04-30T02:57:09;102436.31;;;6.32;88.93
72116;BME280;59991;52.140;5.428;2023-04-30T02:57:41;102440.13;;;6.31;88.95
72116;BME280;59991;52.140;5.428;2023-04-30T02:58:12;102442.03;;;6.30;88.52
72116;BME280;59991;52.140;5.428;2023-04-30T02:58:44;102442.03;;;6.30;88.34
72116;BME280;59991;52.140;5.428;2023-04-30T02:59:16;102444.25;;;6.28;89.08
72116;BME280;59991;52.140;5.428;2023-04-30T02:59:47;102439.63;;;6.29;88.54
72116;BME280;59991;52.140;5.428;2023-04-30T03:00:19;102440.72;;;6.28;88.44
72116;BME280;59991;52.140;5.428;2023-04-30T03:00:50;102440.72;;;6.28;88.58
72116;BME280;59991;52.140;5.428;2023-04-30T03:01:22;102434.00;;;6.25;88.57
72116;BME280;59991;52.140;5.428;2023-04-30T03:01:53;102442.94;;;6.26;89.21
72116;BME280;59991;52.140;5.428;2023-04-30T03:02:25;102435.94;;;6.24;89.28
72116;BME280;59991;52.140;5.428;2023-04-30T03:02:56;102439.75;;;6.23;89.09
72116;BME280;59991;52.140;5.428;2023-04-30T03:03:28;102435.13;;;6.24;89.47
72116;BME280;59991;52.140;5.428;2023-04-30T03:03:59;102430.81;;;6.23;89.65
72116;BME280;59991;52.140;5.428;2023-04-30T03:04:31;102432.72;;;6.22;90.01
72116;BME280;59991;52.140;5.428;2023-04-30T03:05:02;102442.75;;;6.22;89.66
72116;BME280;59991;52.140;5.428;2023-04-30T03:05:34;102435.72;;;6.21;89.77
72116;BME280;59991;52.140;5.428;2023-04-30T03:06:05;102436.53;;;6.21;89.60
72116;BME280;59991;52.140;5.428;2023-04-30T03:06:37;102436.53;;;6.21;89.47
72116;BME280;59991;52.140;5.428;2023-04-30T03:07:09;102440.34;;;6.20;89.52
72116;BME280;59991;52.140;5.428;2023-04-30T03:07:41;102433.34;;;6.19;89.41